createdAt,value
2022-12-08T00:02:24.013Z,9.47
2022-12-08T00:05:44.324Z,7.37
2022-12-08T00:09:06.884Z,8.40
2022-12-08T00:12:15.247Z,8.97
2022-12-08T00:15:16.922Z,8.33
2022-12-08T00:18:18.588Z,8.77
2022-12-08T00:21:20.309Z,8.43
2022-12-08T00:24:25.244Z,9.07
2022-12-08T00:27:26.851Z,8.60
2022-12-08T00:30:28.521Z,8.93
2022-12-08T00:33:30.134Z,9.00
2022-12-08T00:36:32.552Z,9.10
2022-12-08T00:39:34.267Z,8.90
2022-12-08T00:42:38.010Z,7.97
2022-12-08T00:45:39.796Z,9.03
2022-12-08T00:48:41.502Z,9.33
2022-12-08T00:51:43.931Z,8.60
2022-12-08T00:54:45.565Z,9.40
2022-12-08T00:57:47.200Z,9.33
2022-12-08T01:00:49.010Z,8.90
2022-12-08T01:03:50.966Z,9.17
2022-12-08T01:06:52.759Z,9.73
2022-12-08T01:09:54.446Z,9.13
2022-12-08T01:12:56.118Z,8.77
2022-12-08T01:15:57.851Z,8.90
2022-12-08T01:19:00.072Z,10.07
2022-12-08T01:22:01.758Z,10.00
2022-12-08T01:25:03.611Z,10.00
2022-12-08T01:28:05.354Z,10.97
2022-12-08T01:31:20.765Z,10.67
2022-12-08T01:34:25.528Z,9.97
2022-12-08T01:37:27.325Z,10.30
2022-12-08T01:40:29.076Z,10.83
2022-12-08T01:44:10.616Z,11.40
2022-12-08T01:47:12.375Z,10.70
2022-12-08T01:50:15.746Z,10.50
2022-12-08T01:53:25.897Z,11.10
2022-12-08T01:56:42.130Z,10.97
2022-12-08T01:59:52.753Z,11.07
2022-12-08T02:03:15.504Z,11.27
2022-12-08T02:06:18.790Z,11.20
2022-12-08T02:09:25.367Z,11.07
2022-12-08T02:12:27.058Z,10.87
2022-12-08T02:15:50.829Z,11.37
2022-12-08T02:19:31.633Z,10.63
2022-12-08T02:23:00.390Z,11.43
2022-12-08T02:26:15.208Z,11.57
2022-12-08T02:29:35.248Z,10.47
2022-12-08T02:33:23.330Z,11.30
2022-12-08T02:36:53.995Z,11.07
2022-12-08T02:40:29.154Z,11.43
2022-12-08T02:43:52.686Z,11.73
2022-12-08T02:47:25.042Z,11.00
2022-12-08T02:50:30.381Z,10.63
2022-12-08T02:53:34.396Z,11.27
2022-12-08T02:57:25.066Z,11.90
2022-12-08T03:00:33.224Z,11.60
2022-12-08T03:03:47.557Z,10.70
2022-12-08T03:07:20.012Z,11.10
2022-12-08T03:10:42.150Z,10.53
2022-12-08T03:13:51.638Z,11.57
2022-12-08T03:16:56.986Z,11.77
2022-12-08T03:20:04.649Z,11.57
2022-12-08T03:23:10.190Z,12.53
2022-12-08T03:26:19.667Z,10.60
2022-12-08T03:29:21.720Z,10.53
2022-12-08T03:32:35.443Z,11.83
2022-12-08T03:35:40.359Z,10.60
2022-12-08T03:38:44.443Z,10.63
2022-12-08T03:41:47.002Z,10.67
2022-12-08T03:44:50.755Z,10.40
2022-12-08T03:47:52.482Z,9.40
2022-12-08T03:50:54.130Z,10.47
2022-12-08T03:53:55.881Z,10.03
2022-12-08T03:56:57.548Z,10.07
2022-12-08T03:59:59.317Z,9.83
2022-12-08T04:03:01.060Z,9.10
2022-12-08T04:06:02.817Z,9.27
2022-12-08T04:09:04.537Z,9.20
2022-12-08T04:12:09.511Z,9.03
2022-12-08T04:15:14.140Z,10.00
2022-12-08T04:18:16.379Z,9.90
2022-12-08T04:21:18.083Z,11.17
2022-12-08T04:24:19.761Z,9.60
2022-12-08T04:27:28.136Z,10.30
2022-12-08T04:30:29.974Z,10.97
2022-12-08T04:33:31.968Z,10.73
2022-12-08T04:36:33.600Z,9.93
2022-12-08T04:39:35.261Z,11.37
2022-12-08T04:42:37.483Z,10.47
2022-12-08T04:45:40.818Z,9.90
2022-12-08T04:48:42.552Z,10.37
2022-12-08T04:51:44.274Z,10.37
2022-12-08T04:54:45.971Z,10.07
2022-12-08T04:57:47.950Z,11.30
2022-12-08T05:00:49.779Z,11.57
2022-12-08T05:03:54.547Z,11.23
2022-12-08T05:06:56.264Z,10.03
2022-12-08T05:09:58.156Z,11.43
2022-12-08T05:13:00.359Z,11.67
2022-12-08T05:16:13.235Z,10.77
2022-12-08T05:19:15.704Z,11.23
2022-12-08T05:22:17.388Z,11.00
2022-12-08T05:25:19.094Z,9.90
2022-12-08T05:31:46.119Z,10.23
2022-12-08T05:34:47.839Z,10.30
2022-12-08T05:37:49.520Z,9.03
2022-12-08T05:40:51.210Z,9.17
2022-12-08T05:43:52.980Z,9.33
2022-12-08T05:46:54.650Z,9.53
2022-12-08T05:49:56.418Z,9.30
2022-12-08T05:52:58.038Z,9.27
2022-12-08T05:55:59.791Z,9.47
2022-12-08T05:59:01.639Z,10.03
2022-12-08T06:02:03.524Z,8.70
2022-12-08T06:05:05.692Z,9.97
2022-12-08T06:08:11.589Z,10.40
2022-12-08T06:11:25.275Z,10.10
2022-12-08T06:14:27.014Z,10.03
2022-12-08T06:17:28.609Z,9.30
2022-12-08T06:21:21.770Z,10.47
2022-12-08T06:24:23.587Z,10.00
2022-12-08T06:27:25.227Z,9.70
2022-12-08T06:30:28.440Z,10.13
2022-12-08T06:33:31.558Z,10.07
2022-12-08T06:36:34.561Z,12.97
2022-12-08T06:39:36.253Z,10.47
2022-12-08T06:42:43.875Z,10.30
2022-12-08T06:45:49.058Z,10.37
2022-12-08T06:48:50.839Z,10.30
2022-12-08T06:51:52.543Z,10.63
2022-12-08T06:54:54.200Z,9.67
2022-12-08T06:57:57.140Z,9.97
2022-12-08T07:01:04.846Z,11.77
2022-12-08T07:04:06.594Z,10.37
2022-12-08T07:07:08.344Z,10.40
2022-12-08T07:10:11.263Z,9.97
2022-12-08T07:13:12.997Z,10.20
2022-12-08T07:16:14.947Z,9.87
2022-12-08T07:19:16.989Z,10.03
2022-12-08T07:22:18.642Z,10.67
2022-12-08T07:25:21.007Z,8.87
2022-12-08T07:28:52.796Z,8.50
2022-12-08T07:31:54.499Z,9.20
2022-12-08T07:34:56.143Z,9.57
2022-12-08T07:37:57.801Z,8.67
2022-12-08T07:41:00.079Z,9.00
2022-12-08T07:44:09.244Z,9.03
2022-12-08T07:47:10.883Z,9.03
2022-12-08T07:50:12.580Z,8.77
2022-12-08T07:53:14.640Z,8.73
2022-12-08T07:56:16.368Z,9.47
2022-12-08T07:59:18.067Z,9.27
2022-12-08T08:02:25.237Z,10.07
2022-12-08T08:05:27.330Z,9.40
2022-12-08T08:08:29.090Z,9.27
2022-12-08T08:11:31.059Z,8.43
2022-12-08T08:14:32.793Z,9.17
2022-12-08T08:17:35.548Z,9.57
2022-12-08T08:20:37.315Z,9.00
2022-12-08T08:23:38.982Z,8.77
2022-12-08T08:26:40.671Z,8.27
2022-12-08T08:29:42.357Z,9.33
2022-12-08T08:32:44.172Z,8.53
2022-12-08T08:35:45.862Z,9.17
2022-12-08T08:38:50.602Z,6.97
2022-12-08T08:41:52.403Z,8.17
2022-12-08T08:44:54.189Z,7.93
2022-12-08T08:47:56.191Z,7.60
2022-12-08T08:50:58.960Z,7.63
2022-12-08T08:54:00.669Z,7.53
2022-12-08T08:57:02.414Z,7.30
2022-12-08T09:00:07.433Z,7.20
2022-12-08T09:03:09.415Z,7.23
2022-12-08T09:06:11.595Z,7.40
2022-12-08T09:09:15.746Z,7.27
2022-12-08T09:12:17.397Z,8.10
2022-12-08T09:15:20.732Z,8.10
2022-12-08T09:18:22.452Z,7.77
2022-12-08T09:21:25.932Z,7.63
2022-12-08T09:24:27.610Z,7.20
2022-12-08T09:27:32.312Z,8.70
2022-12-08T09:30:34.120Z,7.93
2022-12-08T09:33:35.841Z,7.50
2022-12-08T09:36:37.545Z,8.23
2022-12-08T09:39:39.252Z,8.63
2022-12-08T09:43:02.716Z,7.83
2022-12-08T09:46:09.451Z,7.63
2022-12-08T09:49:16.182Z,7.57
2022-12-08T09:52:26.407Z,8.20
2022-12-08T09:55:46.239Z,6.90
2022-12-08T09:58:55.036Z,6.83
2022-12-08T10:01:57.049Z,8.30
2022-12-08T10:04:59.452Z,7.90
2022-12-08T10:08:23.341Z,7.00
2022-12-08T10:11:49.227Z,7.20
2022-12-08T10:15:03.924Z,7.53
2022-12-08T10:18:16.605Z,7.30
2022-12-08T10:21:22.540Z,7.33
2022-12-08T10:24:39.484Z,6.47
2022-12-08T10:27:41.147Z,7.03
2022-12-08T10:30:42.826Z,6.63
2022-12-08T10:33:45.221Z,7.20
2022-12-08T10:36:52.120Z,6.73
2022-12-08T10:40:15.455Z,6.30
2022-12-08T10:43:25.883Z,6.90
2022-12-08T10:46:29.071Z,6.20
2022-12-08T10:49:32.337Z,6.50
2022-12-08T10:52:39.796Z,6.00
2022-12-08T10:55:44.187Z,6.50
2022-12-08T10:58:50.062Z,6.97
2022-12-08T11:01:56.777Z,7.40
2022-12-08T11:05:00.136Z,7.20
2022-12-08T11:08:06.501Z,6.43
2022-12-08T11:11:08.715Z,6.60
2022-12-08T11:14:39.031Z,7.77
2022-12-08T11:17:41.168Z,7.70
2022-12-08T11:20:42.822Z,6.40
2022-12-08T11:23:49.496Z,7.07
2022-12-08T11:27:02.782Z,7.27
2022-12-08T11:30:14.820Z,7.70
2022-12-08T11:33:19.383Z,8.70
2022-12-08T11:36:27.703Z,7.83
2022-12-08T11:39:59.059Z,8.33
2022-12-08T11:43:19.558Z,7.97
2022-12-08T11:46:42.954Z,6.90
2022-12-08T11:50:42.410Z,7.90
2022-12-08T11:54:02.937Z,8.67
2022-12-08T11:57:09.116Z,7.67
2022-12-08T12:00:15.047Z,8.03
2022-12-08T12:03:38.178Z,9.17
2022-12-08T12:06:58.053Z,7.47
2022-12-08T12:10:14.756Z,4.50
2022-12-08T12:13:38.097Z,4.30
2022-12-08T12:17:07.345Z,4.00
2022-12-08T12:20:30.924Z,3.60
2022-12-08T12:23:57.039Z,3.50
2022-12-08T12:27:06.765Z,3.40
2022-12-08T12:30:54.994Z,3.50
2022-12-08T12:34:28.653Z,3.57
2022-12-08T12:37:44.023Z,3.17
2022-12-08T12:40:46.706Z,3.53
2022-12-08T12:44:14.167Z,3.10
2022-12-08T12:47:46.318Z,3.90
2022-12-08T12:50:55.162Z,3.40
2022-12-08T12:54:22.521Z,3.13
2022-12-08T12:57:35.034Z,3.63
2022-12-08T13:00:36.723Z,3.13
2022-12-08T13:03:41.308Z,3.00
2022-12-08T13:06:49.768Z,3.40
2022-12-08T13:10:11.016Z,3.50
2022-12-08T13:13:12.835Z,3.73
2022-12-08T13:16:21.451Z,10.10
2022-12-08T13:19:23.243Z,5.53
2022-12-08T13:22:52.813Z,4.70
2022-12-08T13:26:11.733Z,3.20
2022-12-08T13:29:25.109Z,3.20
2022-12-08T13:32:39.045Z,2.80
2022-12-08T13:36:00.181Z,4.50
2022-12-08T13:39:02.656Z,2.97
2022-12-08T13:42:26.397Z,3.30
2022-12-08T13:46:20.276Z,2.63
2022-12-08T13:50:30.704Z,2.80
2022-12-08T13:53:49.015Z,3.90
2022-12-08T13:59:22.755Z,2.70
2022-12-08T14:02:36.283Z,3.00
2022-12-08T14:06:11.003Z,2.97
2022-12-08T14:09:11.189Z,2.90
2022-12-08T14:12:28.180Z,3.30
2022-12-08T14:15:37.831Z,3.00
2022-12-08T14:18:40.436Z,2.90
2022-12-08T14:21:44.521Z,2.80
2022-12-08T14:24:48.100Z,2.83
2022-12-08T14:27:50.383Z,2.70
2022-12-08T14:31:00.322Z,3.17
2022-12-08T14:34:02.155Z,3.33
2022-12-08T14:37:03.909Z,3.80
2022-12-08T14:40:21.124Z,3.60
2022-12-08T14:43:26.921Z,3.63
2022-12-08T14:46:29.096Z,3.83
2022-12-08T14:49:36.185Z,3.83
2022-12-08T14:52:44.027Z,4.63
2022-12-08T14:55:48.355Z,4.80
2022-12-08T14:59:03.356Z,4.33
2022-12-08T15:02:11.195Z,4.47
2022-12-08T15:05:16.964Z,4.30
2022-12-08T15:08:19.076Z,4.33
2022-12-08T15:11:24.073Z,3.93
2022-12-08T15:14:35.477Z,4.63
2022-12-08T15:17:40.323Z,4.13
2022-12-08T15:20:44.446Z,3.90
2022-12-08T15:23:49.936Z,3.40
2022-12-08T15:26:54.243Z,3.53
2022-12-08T15:29:56.034Z,3.83
2022-12-08T15:33:01.752Z,5.10
2022-12-08T15:36:03.571Z,5.83
2022-12-08T15:39:10.590Z,4.80
2022-12-08T15:42:13.334Z,5.00
2022-12-08T15:45:16.374Z,4.63
2022-12-08T15:48:29.724Z,4.97
2022-12-08T15:51:36.306Z,4.60
2022-12-08T15:54:38.167Z,4.20
2022-12-08T16:01:02.302Z,3.63
2022-12-08T16:07:29.058Z,4.00
2022-12-08T16:10:52.223Z,4.00
2022-12-08T16:13:58.325Z,4.63
2022-12-08T16:17:04.876Z,4.50
2022-12-08T16:20:12.169Z,4.27
2022-12-08T16:23:34.571Z,4.47
2022-12-08T16:27:50.522Z,4.80
2022-12-08T16:29:58.908Z,5.13
2022-12-08T16:33:00.625Z,4.97
2022-12-08T16:36:02.326Z,5.33
2022-12-08T16:39:06.842Z,5.47
2022-12-08T16:42:32.770Z,4.97
2022-12-08T16:45:43.156Z,5.13
2022-12-08T16:48:46.545Z,5.50
2022-12-08T16:51:48.204Z,5.03
2022-12-08T16:54:49.966Z,5.47
2022-12-08T16:57:51.907Z,6.63
2022-12-08T17:00:53.517Z,6.30
2022-12-08T17:07:16.823Z,6.50
2022-12-08T17:10:22.842Z,7.13
2022-12-08T17:13:24.467Z,9.67
2022-12-08T17:16:26.977Z,7.43
2022-12-08T17:19:28.776Z,10.70
2022-12-08T17:22:31.599Z,8.57
2022-12-08T17:25:33.241Z,9.37
2022-12-08T17:28:59.590Z,7.83
2022-12-08T17:32:01.073Z,8.23
2022-12-08T17:35:03.732Z,6.90
2022-12-08T17:38:06.362Z,6.20
2022-12-08T17:41:09.415Z,5.77
2022-12-08T17:44:13.051Z,5.37
2022-12-08T17:47:14.761Z,5.50
2022-12-08T17:50:19.424Z,7.97
2022-12-08T17:53:22.180Z,8.10
2022-12-08T17:56:23.832Z,6.00
2022-12-08T17:59:27.011Z,6.77
2022-12-08T18:02:32.904Z,7.50
2022-12-08T18:05:35.303Z,5.97
2022-12-08T18:08:37.808Z,6.23
2022-12-08T18:11:39.803Z,6.47
2022-12-08T18:14:41.767Z,6.00
2022-12-08T18:17:43.460Z,6.87
2022-12-08T18:20:46.459Z,7.17
2022-12-08T18:23:48.224Z,7.20
2022-12-08T18:26:55.679Z,6.83
2022-12-08T18:29:57.425Z,6.10
2022-12-08T18:32:59.134Z,6.80
2022-12-08T18:36:00.876Z,6.27
2022-12-08T18:39:10.536Z,6.73
2022-12-08T18:42:25.972Z,5.73
2022-12-08T18:45:27.863Z,5.73
2022-12-08T18:48:29.649Z,6.40
2022-12-08T18:51:31.314Z,6.20
2022-12-08T18:54:58.079Z,7.90
2022-12-08T18:57:54.871Z,6.50
2022-12-08T19:00:56.592Z,6.30
2022-12-08T19:04:29.219Z,7.07
2022-12-08T19:07:30.869Z,7.00
2022-12-08T19:10:35.312Z,6.63
2022-12-08T19:13:36.930Z,6.17
2022-12-08T19:16:38.797Z,6.87
2022-12-08T19:19:40.527Z,6.23
2022-12-08T19:22:42.213Z,6.33
2022-12-08T19:25:43.945Z,6.73
2022-12-08T19:28:46.478Z,6.57
2022-12-08T19:31:48.386Z,6.53
2022-12-08T19:34:50.127Z,7.33
2022-12-08T19:37:57.505Z,6.77
2022-12-08T19:41:23.731Z,9.27
2022-12-08T19:44:34.164Z,7.67
2022-12-08T19:47:35.853Z,5.77
2022-12-08T19:50:39.682Z,5.27
2022-12-08T19:53:47.144Z,4.97
2022-12-08T19:56:49.455Z,5.33
2022-12-08T19:59:56.202Z,5.30
2022-12-08T20:02:59.639Z,6.10
2022-12-08T20:06:01.424Z,7.40
2022-12-08T20:09:03.098Z,8.27
2022-12-08T20:12:05.131Z,7.30
2022-12-08T20:15:10.046Z,7.93
2022-12-08T20:18:13.290Z,7.00
2022-12-08T20:21:14.977Z,7.30
2022-12-08T20:24:17.205Z,6.67
2022-12-08T20:27:18.854Z,5.70
2022-12-08T20:30:20.627Z,5.80
2022-12-08T20:33:22.306Z,5.40
2022-12-08T20:36:24.356Z,5.20
2022-12-08T20:39:26.189Z,5.40
2022-12-08T20:42:27.890Z,5.10
2022-12-08T20:45:29.596Z,5.53
2022-12-08T20:48:31.308Z,5.60
2022-12-08T20:51:34.079Z,5.37
2022-12-08T20:54:37.625Z,5.43
2022-12-08T20:57:39.499Z,4.87
2022-12-08T21:00:41.379Z,4.90
2022-12-08T21:03:44.332Z,4.40
2022-12-08T21:06:46.071Z,4.50
2022-12-08T21:09:47.919Z,4.80
2022-12-08T21:12:52.928Z,4.90
2022-12-08T21:15:54.940Z,4.90
2022-12-08T21:18:56.835Z,4.43
2022-12-08T21:21:58.608Z,5.10
2022-12-08T21:25:00.444Z,5.20
2022-12-08T21:28:02.258Z,5.03
2022-12-08T21:31:12.176Z,5.10
2022-12-08T21:34:20.042Z,4.77
2022-12-08T21:37:25.245Z,4.50
2022-12-08T21:40:27.019Z,4.87
2022-12-08T21:43:28.811Z,3.67
2022-12-08T21:46:32.058Z,3.30
2022-12-08T21:49:34.038Z,3.30
2022-12-08T21:52:40.317Z,4.00
2022-12-08T21:55:42.166Z,4.50
2022-12-08T21:58:43.963Z,3.47
2022-12-08T22:01:45.995Z,2.97
2022-12-08T22:04:49.560Z,3.20
2022-12-08T22:07:51.573Z,2.70
2022-12-08T22:10:56.201Z,2.60
2022-12-08T22:13:58.008Z,3.00
2022-12-08T22:17:00.008Z,2.70
2022-12-08T22:20:02.000Z,2.90
2022-12-08T22:23:06.524Z,2.93
2022-12-08T22:26:11.021Z,3.17
2022-12-08T22:29:12.609Z,2.80
2022-12-08T22:32:14.301Z,3.20
2022-12-08T22:35:16.387Z,2.60
2022-12-08T22:38:18.069Z,3.10
2022-12-08T22:41:20.506Z,3.40
2022-12-08T22:44:22.154Z,3.00
2022-12-08T22:47:26.693Z,3.47
2022-12-08T22:50:28.439Z,3.57
2022-12-08T22:53:33.240Z,3.30
2022-12-08T22:56:34.918Z,3.43
2022-12-08T22:59:37.525Z,3.37
2022-12-08T23:02:39.302Z,2.90
2022-12-08T23:05:41.184Z,3.20
2022-12-08T23:08:43.463Z,3.60
2022-12-08T23:11:45.171Z,3.33
2022-12-08T23:14:46.961Z,3.30
2022-12-08T23:17:48.763Z,3.13
2022-12-08T23:20:50.751Z,3.67
2022-12-08T23:23:52.488Z,4.20
2022-12-08T23:26:54.159Z,3.80
2022-12-08T23:29:55.973Z,3.60
2022-12-08T23:32:57.766Z,3.73
2022-12-08T23:35:59.580Z,3.60
2022-12-08T23:39:01.392Z,4.17
2022-12-08T23:42:03.216Z,4.30
2022-12-08T23:45:05.930Z,3.93
2022-12-08T23:48:07.576Z,3.60
2022-12-08T23:51:10.121Z,3.90
2022-12-08T23:54:12.126Z,5.40
2022-12-08T23:57:13.968Z,8.10
